Latest Weather Observations for Gabo Island

IDN60801

Issued at 11:33 pm EST Sunday 28 August 2016 (issued every 30 minutes, with the page automatically refreshed every 10 minutes)

About weather observations | Map of weather stations | Latest weather observations for NSW | Other Formats
Station Details ID: 084016 Name: GABO ISLAND LIGHTHOUSE Lat: -37.57 Lon: 149.92 Height: 15.2 m
Data from the previous 72 hours. | See also: Recent months at Gabo Island
Date/Time
EST
Temp
°C
App
Temp
°C
Dew
Point
°C
Rel
Hum
%
Delta-T
°C
Wind Press
QNH
hPa
Press
MSL
hPa
Rain since
9am
mm
Dir  Spd
km/h
Gust
km/h
Spd
kts
Gust
kts
28/11:30pm 10.1 7.3 8.5 90 0.8 W 13 15 7 8 1022.6 - 0.0
28/11:00pm 10.3 7.4 8.2 87 1.0 W 13 15 7 8 1022.6 - 0.0
28/10:30pm 10.3 7.8 8.4 88 0.9 NW 11 15 6 8 1022.6 - 0.0
28/10:00pm 11.1 8.0 8.9 86 1.1 WNW 15 19 8 10 1022.6 - 0.0
28/09:30pm 10.7 7.9 8.7 87 1.0 WNW 13 15 7 8 1022.5 - 0.0
28/09:00pm 12.0 8.6 9.0 82 1.5 WSW 17 20 9 11 1022.4 1022.4 0.0
28/08:30pm 12.0 8.7 9.4 84 1.3 WSW 17 19 9 10 1022.1 - 0.0
28/08:00pm 11.9 9.2 8.9 82 1.5 W 13 15 7 8 1021.7 - 0.0
28/07:30pm 12.6 8.8 9.2 80 1.7 WSW 19 22 10 12 1021.5 - 0.0
28/07:00pm 12.6 8.9 9.4 81 1.6 W 19 26 10 14 1021.3 - 0.0
28/06:30pm 13.1 8.1 9.6 79 1.8 SW 26 32 14 17 1020.7 - 0.0
28/06:00pm 13.4 7.2 9.3 76 2.1 SW 32 35 17 19 1020.4 1020.4 0.0
28/05:30pm 13.5 7.6 9.1 75 2.2 SW 30 33 16 18 1020.0 - 0.0
28/05:00pm 13.8 8.2 8.6 71 2.6 SW 28 33 15 18 1019.6 - 0.0
28/04:30pm 14.1 7.2 9.0 71 2.6 SW 35 41 19 22 1019.2 - 0.0
28/04:00pm 14.3 6.9 8.5 68 2.9 SSW 37 43 20 23 1019.0 - 0.0
28/03:30pm 15.1 8.1 8.6 65 3.3 SSW 35 41 19 22 1018.7 - 0.0
28/03:00pm 15.6 7.5 6.8 56 4.3 SW 39 44 21 24 1018.5 1018.5 0.0
28/02:30pm 15.8 8.2 5.8 51 4.8 SW 35 44 19 24 1018.5 - 0.0
28/02:00pm 16.0 9.5 6.6 53 4.6 SW 30 39 16 21 1018.3 - 0.0
28/01:30pm 17.2 10.4 5.3 45 5.7 WSW 30 37 16 20 1018.4 - 0.0
28/01:00pm 17.6 12.9 5.1 43 6.0 W 19 26 10 14 1018.6 - 0.0
28/12:30pm 17.0 12.5 4.2 42 6.0 W 17 20 9 11 1019.0 - 0.0
28/12:00pm 15.2 12.0 5.0 50 4.8 WNW 11 17 6 9 1019.4 1019.4 0.0
28/11:30am 14.3 10.1 4.0 50 4.7 WNW 15 20 8 11 1019.5 - 0.0
28/11:00am 13.9 8.9 3.4 49 4.7 WNW 19 28 10 15 1019.6 - 0.0
28/10:30am 13.6 8.5 3.3 49 4.6 WNW 19 24 10 13 1019.4 - 0.0
28/10:00am 13.2 7.8 1.5 45 5.0 NW 19 24 10 13 1019.3 - 0.0
28/09:30am 12.9 7.3 1.1 44 5.0 NW 20 33 11 18 1019.3 - 0.0
28/09:00am 12.6 6.9 0.6 44 5.0 NW 20 28 11 15 1019.3 1019.3 0.0
28/08:30am 12.1 5.6 0.5 45 4.8 NW 24 33 13 18 1019.2 - 0.0
28/08:00am 11.9 6.1 0.2 44 4.8 NW 20 32 11 17 1019.3 - 0.0
28/07:30am 11.6 6.4 0.1 45 4.7 NW 17 24 9 13 1019.2 - 0.0
28/07:00am 11.4 6.1 -0.6 43 4.8 NW 17 28 9 15 1018.9 - 0.0
28/06:30am 11.2 5.8 -1.2 42 4.9 NW 17 24 9 13 1018.6 - 0.0
28/06:00am 11.2 5.4 -1.2 42 4.9 NW 19 26 10 14 1018.7 1018.7 0.0
28/05:30am 11.3 5.9 -1.1 42 4.9 NW 17 24 9 13 1018.4 - 0.0
28/05:00am 10.9 5.6 -0.6 45 4.6 NW 17 24 9 13 1018.3 - 0.0
28/04:30am 10.6 6.3 0.9 51 4.0 WNW 13 19 7 10 1018.2 - 0.0
28/04:00am 10.5 5.8 0.7 50 4.0 WNW 15 19 8 10 1018.1 - 0.0
28/03:30am 10.0 5.7 1.3 54 3.6 WNW 13 19 7 10 1018.3 - 0.0
28/03:00am 9.5 5.9 3.2 65 2.7 W 11 17 6 9 1018.2 1018.2 0.0
28/02:30am 9.1 5.6 3.5 68 2.4 W 11 13 6 7 1018.5 - 0.0
28/02:00am 10.1 6.5 3.2 62 3.0 NW 11 15 6 8 1018.6 - 0.0
28/01:30am 10.1 6.7 4.2 67 2.6 WNW 11 15 6 8 1018.7 - 0.0
28/01:00am 9.8 6.1 4.6 70 2.3 NW 13 17 7 9 1018.6 - 0.0
28/12:30am 9.0 5.1 5.5 79 1.6 WNW 15 19 8 10 1019.0 - 0.0
28/12:00am 9.0 5.2 5.9 81 1.4 WNW 15 20 8 11 1018.9 1018.9 0.0
 
Date/Time
EST
Temp
°C
App
Temp
°C
Dew
Point
°C
Rel
Hum
%
Delta-T
°C
Wind Press
QNH
hPa
Press
MSL
hPa
Rain since
9am
mm
Dir  Spd
km/h
Gust
km/h
Spd
kts
Gust
kts
27/11:30pm 9.0 5.2 5.7 80 1.5 WNW 15 17 8 9 1018.9 - 0.0
27/11:00pm 9.1 5.2 5.3 77 1.7 NW 15 17 8 9 1019.0 - 0.0
27/10:30pm 9.2 5.4 5.7 79 1.6 WNW 15 17 8 9 1019.2 - 0.0
27/10:00pm 9.9 6.0 5.3 73 2.1 NW 15 17 8 9 1019.1 - 0.0
27/09:30pm 9.9 6.9 6.0 77 1.8 NW 11 15 6 8 1019.2 - 0.0
27/09:00pm 10.3 7.9 4.5 67 2.6 NW 6 9 3 5 1019.2 1019.2 0.0
27/08:30pm 10.2 8.9 4.3 67 2.6 CALM 0 0 0 0 1019.3 - 0.0
27/08:00pm 10.8 9.4 3.5 60 3.2 CALM 0 0 0 0 1019.3 - 0.0
27/07:30pm 10.7 9.3 3.4 60 3.2 CALM 0 0 0 0 1019.1 - 0.0
27/07:00pm 9.9 7.2 3.7 65 2.7 NNE 7 9 4 5 1019.0 - 0.0
27/06:30pm 11.5 10.0 3.0 56 3.7 CALM 0 0 0 0 1019.3 - 0.0
27/06:00pm 12.2 9.4 3.1 53 4.0 E 7 9 4 5 1019.0 1019.0 0.0
27/05:30pm 12.4 9.2 2.8 52 4.2 ENE 9 11 5 6 1018.9 - 0.0
27/05:00pm 13.1 10.3 3.2 51 4.4 E 7 11 4 6 1018.9 - 0.0
27/04:30pm 13.6 10.4 3.3 49 4.6 SE 9 11 5 6 1019.0 - 0.0
27/04:00pm 13.9 9.6 3.4 49 4.7 S 15 19 8 10 1019.4 - 0.0
27/03:30pm 14.3 10.5 4.0 50 4.7 S 13 17 7 9 1019.2 - 0.0
27/03:00pm 14.4 10.4 2.7 45 5.2 S 13 17 7 9 1019.2 1019.2 0.0
27/02:30pm 14.4 9.7 3.0 46 5.1 S 17 20 9 11 1019.1 - 0.0
27/02:00pm 14.4 8.4 3.6 48 4.9 SSW 24 28 13 15 1019.4 - 0.0
27/01:30pm 14.4 8.4 3.6 48 4.9 SSW 24 30 13 16 1019.2 - 0.0
27/01:00pm 14.2 8.5 2.7 46 5.1 SSW 22 26 12 14 1019.7 - 0.0
27/12:30pm 13.8 7.6 2.4 46 5.0 SSW 24 28 13 15 1020.2 - 0.0
27/12:00pm 14.5 10.5 2.8 45 5.2 SSW 13 19 7 10 1020.7 1020.7 0.0
27/11:30am 14.2 11.0 3.0 47 5.0 WSW 9 13 5 7 1021.2 - 0.0
27/11:00am 14.3 10.0 3.1 47 5.0 W 15 17 8 9 1021.6 - 0.0
27/10:30am 13.9 9.2 3.4 49 4.7 W 17 20 9 11 1021.8 - 0.0
27/10:00am 13.6 9.3 3.3 49 4.6 WNW 15 20 8 11 1021.9 - 0.0
27/09:30am 12.7 8.1 3.5 53 4.1 WNW 17 20 9 11 1021.9 - 0.0
27/09:00am 11.8 7.0 2.8 54 3.9 WNW 17 22 9 12 1021.6 1021.6 0.0
27/08:30am 11.1 6.3 2.8 56 3.6 NW 17 24 9 13 1021.6 - 0.0
27/08:00am 10.2 5.9 3.0 61 3.1 NW 15 20 8 11 1021.6 - 0.0
27/07:30am 9.3 4.5 2.4 62 2.9 NW 17 24 9 13 1021.4 - 0.0
27/07:00am 8.9 5.0 3.3 68 2.4 NW 13 19 7 10 1021.3 - 0.0
27/06:30am 8.7 3.9 2.8 66 2.5 NW 17 22 9 12 1021.0 - 0.0
27/06:00am 8.9 4.5 2.7 65 2.6 NW 15 20 8 11 1020.6 1020.6 0.0
27/05:30am 8.7 4.7 2.8 66 2.5 NW 13 17 7 9 1020.6 - 0.0
27/05:00am 9.4 5.4 2.8 63 2.8 WNW 13 17 7 9 1020.5 - 0.0
27/04:30am 9.1 5.1 3.0 65 2.6 NW 13 19 7 10 1020.5 - 0.0
27/04:00am 9.1 5.1 3.0 65 2.6 NW 13 17 7 9 1020.5 - 0.0
27/03:30am 9.0 5.0 2.9 65 2.6 NW 13 17 7 9 1020.5 - 0.0
27/03:00am 9.1 5.1 3.0 65 2.6 NW 13 17 7 9 1020.8 1020.8 0.0
27/02:30am 9.3 4.6 3.0 65 2.7 NW 17 22 9 12 1020.9 - 0.0
27/02:00am 9.2 4.1 3.1 65 2.6 WNW 19 24 10 13 1020.9 - 0.0
27/01:30am 9.2 3.9 3.1 65 2.6 WNW 20 24 11 13 1021.1 - 0.0
27/01:00am 9.4 4.7 3.4 66 2.6 WNW 17 26 9 14 1021.2 - 0.0
27/12:30am 9.3 4.3 3.5 67 2.5 WNW 19 24 10 13 1021.2 - 0.0
27/12:00am 9.3 5.1 4.0 69 2.3 WNW 15 20 8 11 1021.2 1021.2 0.0
 
Date/Time
EST
Temp
°C
App
Temp
°C
Dew
Point
°C
Rel
Hum
%
Delta-T
°C
Wind Press
QNH
hPa
Press
MSL
hPa
Rain since
9am
mm
Dir  Spd
km/h
Gust
km/h
Spd
kts
Gust
kts
26/11:30pm 9.4 5.0 4.7 72 2.1 WNW 17 22 9 12 1021.1 - 0.0
26/11:00pm 9.3 4.9 4.6 72 2.1 NW 17 26 9 14 1021.1 - 0.0
26/10:30pm 9.4 4.6 5.4 76 1.8 WNW 20 28 11 15 1021.0 - 0.0
26/10:00pm 9.5 4.7 5.5 76 1.8 WNW 20 26 11 14 1020.9 - 0.0
26/09:30pm 9.8 5.1 5.1 72 2.1 WNW 19 26 10 14 1020.8 - 0.0
26/09:00pm 10.1 5.2 5.2 71 2.2 W 20 28 11 15 1020.7 1020.7 0.0
26/08:30pm 10.3 5.0 5.2 70 2.3 W 22 30 12 16 1020.6 - 0.0
26/08:00pm 10.1 5.5 5.5 73 2.1 W 19 30 10 16 1020.3 - 0.0
26/07:30pm 10.8 5.8 4.8 66 2.7 W 20 28 11 15 1020.3 - 0.0
26/07:00pm 10.9 6.0 4.9 66 2.7 WSW 20 24 11 13 1020.1 - 0.0
26/06:30pm 11.0 5.6 4.3 63 3.0 W 22 28 12 15 1019.8 - 0.0
26/06:00pm 11.2 5.3 4.0 61 3.2 W 24 28 13 15 1019.6 1019.6 0.0
26/05:30pm 11.4 4.4 4.0 60 3.3 WSW 30 37 16 20 1019.3 - 0.0
26/05:00pm 12.0 4.5 3.7 57 3.7 W 32 39 17 21 1019.2 - 0.0
26/04:30pm 12.4 3.7 3.9 56 3.8 WSW 39 48 21 26 1019.0 - 0.0
26/04:00pm 13.0 5.5 4.7 57 3.8 WSW 33 41 18 22 1018.7 - 0.0
26/03:30pm 13.5 6.0 3.5 51 4.5 WSW 32 41 17 22 1018.5 - 0.0
26/03:00pm 13.6 6.1 3.3 49 4.6 WSW 32 39 17 21 1018.5 1018.5 0.0
26/02:30pm 13.2 5.5 3.3 51 4.4 WSW 33 43 18 23 1018.5 - 0.0
26/02:00pm 13.7 5.4 2.0 45 5.1 WSW 35 43 19 23 1018.6 - 0.0
26/01:30pm 12.9 3.0 2.9 50 4.4 SW 44 54 24 29 1018.5 - 0.0
26/01:00pm 13.1 3.8 3.2 51 4.4 SW 41 56 22 30 1018.5 - 0.0
26/12:30pm 13.1 4.2 3.2 51 4.4 WSW 39 44 21 24 1018.7 - 0.0
26/12:00pm 13.3 5.1 2.6 48 4.7 WSW 35 44 19 24 1019.0 1019.0 0.0
26/11:30am 13.1 5.1 4.0 54 4.1 WSW 35 46 19 25 1019.1 - 0.0
26/11:00am 12.8 4.3 3.1 51 4.3 WSW 37 44 20 24 1019.3 - 0.0
26/10:30am 12.5 5.1 5.1 60 3.4 WSW 33 41 18 22 1019.3 - 0.0
26/10:00am 11.7 3.6 5.4 65 2.9 WSW 37 46 20 25 1019.2 - 0.0
26/09:30am 11.3 3.1 6.6 73 2.2 W 39 46 21 25 1019.4 - 0.0
26/09:00am 11.2 3.6 7.4 77 1.8 W 37 46 20 25 1019.0 1019.0 1.2
26/08:30am 10.0 2.6 6.8 80 1.5 W 35 43 19 23 1019.0 - 1.2
26/08:00am 10.3 2.6 6.9 79 1.6 W 37 48 20 26 1018.6 - 1.2
26/07:30am 9.5 1.6 6.2 80 1.5 W 37 46 20 25 1018.5 - 1.2
26/07:00am 8.8 2.3 6.4 85 1.1 W 30 44 16 24 1018.1 - 1.2
26/06:30am 8.6 1.5 6.4 86 1.0 W 33 41 18 22 1017.7 - 1.2
26/06:00am 8.7 1.2 6.3 85 1.1 W 35 46 19 25 1017.2 1017.2 1.2
26/05:30am 8.7 0.9 6.5 86 1.0 W 37 46 20 25 1017.1 - 1.2
26/05:00am 8.8 1.7 6.6 86 1.0 W 33 43 18 23 1016.9 - 1.2
26/04:30am 8.4 1.4 6.7 89 0.8 W 33 39 18 21 1016.8 - 1.0
26/04:00am 9.1 1.4 7.0 87 1.0 WSW 37 48 20 26 1016.2 - 0.8
26/03:30am 9.0 2.1 6.6 85 1.1 W 32 39 17 21 1015.9 - 0.8
26/03:00am 8.9 1.4 6.3 84 1.2 W 35 41 19 22 1015.9 1015.9 0.8
26/02:30am 9.0 1.5 6.2 82 1.3 W 35 44 19 24 1015.7 - 0.8
26/02:00am 8.4 1.3 5.7 83 1.2 W 32 37 17 20 1015.8 - 0.8
26/01:30am 8.6 1.3 5.5 81 1.4 W 33 41 18 22 1016.0 - 0.8
26/01:00am 9.0 2.8 6.2 82 1.3 W 28 37 15 20 1016.0 - 0.8
26/12:30am 9.4 2.4 6.1 80 1.5 W 32 39 17 21 1015.9 - 0.8
26/12:00am 9.5 2.6 6.3 80 1.5 W 32 39 17 21 1015.8 1015.8 0.8

Other Formats:

Comma delimited format used in spreadsheet applications
http://www.bom.gov.au/fwo/IDN60801/IDN60801.94933.axf

JavaScript Object Notation format (JSON) in row-major order
http://www.bom.gov.au/fwo/IDN60801/IDN60801.94933.json